createdAt,value
2022-11-19T00:02:02.327Z,8.60
2022-11-19T00:04:32.176Z,8.60
2022-11-19T00:07:00.428Z,8.50
2022-11-19T00:09:28.704Z,8.50
2022-11-19T00:12:14.196Z,8.50
2022-11-19T00:14:42.487Z,8.50
2022-11-19T00:17:10.598Z,8.60
2022-11-19T00:19:40.026Z,8.80
2022-11-19T00:22:08.263Z,8.90
2022-11-19T00:24:36.473Z,8.70
2022-11-19T00:27:04.789Z,8.80
2022-11-19T00:29:32.995Z,8.70
2022-11-19T00:32:01.176Z,8.70
2022-11-19T00:34:29.424Z,8.70
2022-11-19T00:36:59.016Z,8.70
2022-11-19T00:39:27.079Z,8.60
2022-11-19T00:41:55.334Z,8.70
2022-11-19T00:44:23.453Z,8.70
2022-11-19T00:46:51.710Z,8.70
2022-11-19T00:49:20.181Z,8.70
2022-11-19T00:51:48.603Z,8.70
2022-11-19T00:54:18.430Z,8.60
2022-11-19T00:56:46.716Z,8.70
2022-11-19T00:59:15.100Z,8.60
2022-11-19T01:01:43.437Z,8.60
2022-11-19T01:04:11.936Z,8.60
2022-11-19T01:06:40.341Z,8.60
2022-11-19T01:09:08.808Z,8.60
2022-11-19T01:11:39.412Z,8.70
2022-11-19T01:14:08.173Z,8.60
2022-11-19T01:16:38.055Z,8.70
2022-11-19T01:19:07.904Z,8.70
2022-11-19T01:21:37.442Z,8.60
2022-11-19T01:24:06.702Z,8.60
2022-11-19T01:26:35.284Z,8.50
2022-11-19T01:29:04.883Z,8.50
2022-11-19T01:31:33.178Z,8.60
2022-11-19T01:34:01.374Z,8.60
2022-11-19T01:36:30.675Z,8.60
2022-11-19T01:38:59.245Z,8.60
2022-11-19T01:41:29.519Z,8.50
2022-11-19T01:44:00.621Z,8.70
2022-11-19T01:46:33.562Z,8.70
2022-11-19T01:49:06.559Z,8.60
2022-11-19T01:51:39.267Z,8.60
2022-11-19T01:54:13.834Z,8.40
2022-11-19T01:56:42.194Z,8.60
2022-11-19T01:59:15.293Z,8.40
2022-11-19T02:01:45.589Z,8.50
2022-11-19T02:04:17.537Z,8.40
2022-11-19T02:06:46.913Z,8.50
2022-11-19T02:09:15.309Z,8.60
2022-11-19T02:12:10.563Z,8.50
2022-11-19T02:15:01.991Z,8.50
2022-11-19T02:17:51.401Z,8.50
2022-11-19T02:20:42.251Z,8.50
2022-11-19T02:23:32.295Z,8.60
2022-11-19T02:26:41.259Z,8.50
2022-11-19T02:29:21.349Z,8.60
2022-11-19T02:31:57.255Z,8.50
2022-11-19T02:34:29.932Z,8.40
2022-11-19T02:37:02.128Z,8.30
2022-11-19T02:39:37.522Z,8.40
2022-11-19T02:42:09.937Z,8.40
2022-11-19T02:45:02.221Z,8.40
2022-11-19T02:47:38.433Z,8.50
2022-11-19T02:50:12.455Z,8.40
2022-11-19T02:52:41.464Z,8.40
2022-11-19T02:55:13.753Z,8.40
2022-11-19T02:57:43.525Z,8.40
2022-11-19T03:00:30.697Z,8.40
2022-11-19T03:03:23.938Z,8.30
2022-11-19T03:05:55.290Z,8.40
2022-11-19T03:08:23.491Z,8.50
2022-11-19T03:11:01.114Z,8.60
2022-11-19T03:13:54.481Z,8.60
2022-11-19T03:16:42.945Z,8.40
2022-11-19T03:19:21.509Z,8.30
2022-11-19T03:21:55.892Z,8.40
2022-11-19T03:24:30.424Z,8.30
2022-11-19T03:27:06.059Z,8.20
2022-11-19T03:29:37.610Z,8.20
2022-11-19T03:32:10.138Z,8.20
2022-11-19T03:34:41.163Z,8.20
2022-11-19T03:37:10.615Z,8.30
2022-11-19T03:39:39.873Z,8.40
2022-11-19T03:42:12.629Z,8.40
2022-11-19T03:44:45.087Z,8.20
2022-11-19T03:47:15.905Z,8.30
2022-11-19T03:49:49.721Z,8.50
2022-11-19T03:52:20.707Z,8.60
2022-11-19T03:54:49.298Z,8.50
2022-11-19T03:57:19.884Z,8.60
2022-11-19T03:59:48.783Z,8.50
2022-11-19T04:02:17.386Z,8.60
2022-11-19T04:04:46.809Z,8.50
2022-11-19T04:07:16.586Z,8.40
2022-11-19T04:09:44.783Z,8.30
2022-11-19T04:12:17.638Z,8.40
2022-11-19T04:14:46.164Z,8.30
2022-11-19T04:17:14.456Z,8.30
2022-11-19T04:19:42.706Z,8.30
2022-11-19T04:22:12.353Z,8.30
2022-11-19T04:24:40.601Z,8.40
2022-11-19T04:27:08.713Z,8.50
2022-11-19T04:29:37.005Z,8.40
2022-11-19T04:32:05.475Z,8.30
2022-11-19T04:34:33.663Z,8.30
2022-11-19T04:37:01.783Z,8.40
2022-11-19T04:39:31.269Z,8.50
2022-11-19T04:41:59.353Z,8.40
2022-11-19T04:44:27.449Z,8.40
2022-11-19T04:46:55.506Z,8.40
2022-11-19T04:49:23.648Z,8.30
2022-11-19T04:51:51.803Z,8.10
2022-11-19T04:54:20.060Z,8.00
2022-11-19T04:56:49.649Z,8.20
2022-11-19T04:59:18.097Z,8.20
2022-11-19T05:01:46.737Z,8.10
2022-11-19T05:04:15.082Z,8.20
2022-11-19T05:06:43.263Z,8.20
2022-11-19T05:09:11.544Z,8.40
2022-11-19T05:11:39.821Z,8.50
2022-11-19T05:14:09.567Z,8.50
2022-11-19T05:16:37.741Z,8.30
2022-11-19T05:19:05.939Z,8.40
2022-11-19T05:21:34.109Z,8.40
2022-11-19T05:24:02.335Z,8.20
2022-11-19T05:26:30.607Z,8.40
2022-11-19T05:28:58.792Z,8.40
2022-11-19T05:31:28.310Z,8.40
2022-11-19T05:33:56.527Z,8.40
2022-11-19T05:36:24.685Z,8.50
2022-11-19T05:38:52.923Z,8.50
2022-11-19T05:41:21.055Z,8.30
2022-11-19T05:43:49.147Z,8.20
2022-11-19T05:46:17.246Z,8.10
2022-11-19T05:48:46.768Z,8.20
2022-11-19T05:51:15.724Z,8.20
2022-11-19T05:53:44.265Z,8.20
2022-11-19T05:56:13.704Z,8.20
2022-11-19T05:58:41.817Z,8.30
2022-11-19T06:01:09.909Z,8.30
2022-11-19T06:03:38.031Z,8.40
2022-11-19T06:06:08.208Z,8.50
2022-11-19T06:08:36.324Z,8.40
2022-11-19T06:11:04.934Z,8.50
2022-11-19T06:13:33.096Z,8.40
2022-11-19T06:16:01.205Z,8.50
2022-11-19T06:18:29.373Z,8.30
2022-11-19T06:20:57.645Z,8.40
2022-11-19T06:23:27.228Z,8.40
2022-11-19T06:25:55.922Z,8.40
2022-11-19T06:28:24.251Z,8.50
2022-11-19T06:30:52.542Z,8.40
2022-11-19T06:33:20.722Z,8.40
2022-11-19T06:35:50.409Z,8.20
2022-11-19T06:38:18.669Z,8.20
2022-11-19T06:40:48.268Z,8.20
2022-11-19T06:43:16.428Z,8.30
2022-11-19T06:45:44.602Z,8.30
2022-11-19T06:48:12.697Z,8.20
2022-11-19T06:50:40.867Z,8.30
2022-11-19T06:53:08.959Z,8.40
2022-11-19T06:55:37.120Z,8.40
2022-11-19T06:58:07.770Z,8.40
2022-11-19T07:00:36.318Z,8.30
2022-11-19T07:03:04.533Z,8.30
2022-11-19T07:05:32.893Z,8.30
2022-11-19T07:08:03.291Z,8.20
2022-11-19T07:10:33.468Z,8.30
2022-11-19T07:13:01.657Z,8.40
2022-11-19T07:15:31.228Z,8.40
2022-11-19T07:17:59.408Z,8.50
2022-11-19T07:20:27.487Z,8.40
2022-11-19T07:22:59.121Z,8.40
2022-11-19T07:25:27.641Z,8.30
2022-11-19T07:27:55.923Z,8.40
2022-11-19T07:30:24.079Z,8.40
2022-11-19T07:32:55.008Z,8.50
2022-11-19T07:35:23.305Z,8.50
2022-11-19T07:37:51.489Z,8.60
2022-11-19T07:40:19.732Z,8.60
2022-11-19T07:42:49.424Z,8.60
2022-11-19T07:45:18.076Z,8.60
2022-11-19T07:47:46.290Z,8.50
2022-11-19T07:50:15.906Z,8.60
2022-11-19T07:52:44.214Z,8.70
2022-11-19T07:55:12.336Z,8.70
2022-11-19T07:57:40.411Z,8.70
2022-11-19T08:00:09.478Z,8.80
2022-11-19T08:02:37.795Z,8.70
2022-11-19T08:05:06.637Z,8.60
2022-11-19T08:07:38.732Z,8.70
2022-11-19T08:10:08.096Z,8.70
2022-11-19T08:12:36.256Z,8.70
2022-11-19T08:15:05.126Z,8.60
2022-11-19T08:17:50.644Z,8.90
2022-11-19T08:20:19.417Z,9.10
2022-11-19T08:22:48.903Z,9.20
2022-11-19T08:25:17.107Z,9.20
2022-11-19T08:27:45.158Z,9.20
2022-11-19T08:30:14.381Z,9.50
2022-11-19T08:32:42.828Z,9.70
2022-11-19T08:35:11.167Z,9.90
2022-11-19T08:37:39.262Z,9.80
2022-11-19T08:40:10.340Z,9.70
2022-11-19T08:42:55.706Z,9.70
2022-11-19T08:45:24.007Z,9.70
2022-11-19T08:47:52.315Z,9.70
2022-11-19T08:50:20.968Z,9.60
2022-11-19T08:52:58.033Z,9.70
2022-11-19T08:55:29.785Z,9.60
2022-11-19T08:58:02.136Z,9.70
2022-11-19T09:00:30.840Z,9.70
2022-11-19T09:02:58.982Z,9.60
2022-11-19T09:05:27.269Z,9.60
2022-11-19T09:07:56.067Z,9.50
2022-11-19T09:10:24.136Z,9.50
2022-11-19T09:12:54.116Z,9.40
2022-11-19T09:15:23.045Z,9.40
2022-11-19T09:17:51.320Z,9.30
2022-11-19T09:20:19.677Z,9.20
2022-11-19T09:22:47.775Z,9.20
2022-11-19T09:25:16.071Z,9.20
2022-11-19T09:27:44.164Z,9.10
2022-11-19T09:30:15.005Z,9.20
2022-11-19T09:32:43.162Z,9.50
2022-11-19T09:35:11.387Z,9.80
2022-11-19T09:37:39.866Z,9.80
2022-11-19T09:40:09.862Z,9.90
2022-11-19T09:42:46.135Z,10.10
2022-11-19T09:45:23.416Z,9.90
2022-11-19T09:48:13.403Z,9.90
2022-11-19T09:50:53.231Z,9.60
2022-11-19T09:53:23.172Z,9.60
2022-11-19T09:55:54.845Z,9.80
2022-11-19T09:58:27.345Z,9.80
2022-11-19T10:00:56.865Z,9.60
2022-11-19T10:03:32.939Z,9.60
2022-11-19T10:06:30.035Z,9.60
2022-11-19T10:09:20.228Z,9.50
2022-11-19T10:12:07.894Z,9.50
2022-11-19T10:14:57.765Z,9.30
2022-11-19T10:17:38.068Z,9.40
2022-11-19T10:20:21.796Z,9.50
2022-11-19T10:22:57.911Z,9.50
2022-11-19T10:25:31.523Z,9.40
2022-11-19T10:28:07.361Z,9.50
2022-11-19T10:30:36.171Z,9.50
2022-11-19T10:33:13.222Z,9.40
2022-11-19T10:35:45.767Z,9.50
2022-11-19T10:38:22.578Z,9.50
2022-11-19T10:40:54.727Z,9.60
2022-11-19T10:43:28.339Z,9.60
2022-11-19T10:45:58.568Z,9.60
2022-11-19T10:48:38.021Z,9.70
2022-11-19T10:51:14.260Z,10.00
2022-11-19T10:53:43.707Z,10.90
2022-11-19T10:56:15.671Z,11.80
2022-11-19T10:58:48.170Z,12.20
2022-11-19T11:01:22.579Z,12.40
2022-11-19T11:03:59.437Z,12.00
2022-11-19T11:06:27.554Z,12.00
2022-11-19T11:08:56.955Z,11.80
2022-11-19T11:11:49.914Z,11.60
2022-11-19T11:14:38.516Z,11.30
2022-11-19T11:17:17.522Z,10.90
2022-11-19T11:19:56.213Z,10.60
2022-11-19T11:22:24.798Z,10.70
2022-11-19T11:24:53.107Z,10.60
2022-11-19T11:27:23.300Z,10.60
2022-11-19T11:30:06.779Z,10.60
2022-11-19T11:32:35.164Z,10.70
2022-11-19T11:35:08.262Z,10.80
2022-11-19T11:37:38.189Z,10.70
2022-11-19T11:40:08.349Z,10.70
2022-11-19T11:42:36.522Z,10.80
2022-11-19T11:45:06.133Z,10.70
2022-11-19T11:47:40.782Z,10.60
2022-11-19T11:50:20.442Z,10.50
2022-11-19T11:52:51.414Z,10.50
2022-11-19T11:55:33.002Z,10.40
2022-11-19T11:58:03.159Z,10.40
2022-11-19T12:00:35.234Z,10.30
2022-11-19T12:03:05.344Z,10.20
2022-11-19T12:05:47.487Z,10.20
2022-11-19T12:08:31.329Z,10.20
2022-11-19T12:11:06.572Z,10.20
2022-11-19T12:14:01.131Z,10.30
2022-11-19T12:16:39.622Z,10.20
2022-11-19T12:19:26.229Z,10.10
2022-11-19T12:22:04.514Z,9.90
2022-11-19T12:24:51.930Z,9.80
2022-11-19T12:27:30.072Z,9.90
2022-11-19T12:30:06.194Z,9.80
2022-11-19T12:33:08.206Z,9.90
2022-11-19T12:35:54.101Z,10.00
2022-11-19T12:38:36.348Z,9.90
2022-11-19T12:41:21.870Z,9.90
2022-11-19T12:43:56.701Z,9.80
2022-11-19T12:46:40.206Z,9.80
2022-11-19T12:49:33.871Z,9.80
2022-11-19T12:52:14.053Z,9.80
2022-11-19T12:54:55.381Z,10.00
2022-11-19T12:57:40.252Z,9.90
2022-11-19T13:00:15.551Z,9.90
2022-11-19T13:02:57.484Z,9.90
2022-11-19T13:05:35.480Z,9.90
2022-11-19T13:08:08.670Z,9.90
2022-11-19T13:10:44.265Z,9.90
2022-11-19T13:13:17.922Z,9.80
2022-11-19T13:15:48.425Z,9.70
2022-11-19T13:18:18.707Z,9.80
2022-11-19T13:20:50.841Z,9.80
2022-11-19T13:23:25.595Z,9.70
2022-11-19T13:25:59.884Z,9.80
2022-11-19T13:28:34.108Z,9.90
2022-11-19T13:31:08.623Z,10.00
2022-11-19T13:33:41.719Z,9.90
2022-11-19T13:36:19.639Z,9.80
2022-11-19T13:38:53.532Z,9.80
2022-11-19T13:41:27.151Z,9.70
2022-11-19T13:44:14.554Z,9.70
2022-11-19T13:46:47.660Z,9.80
2022-11-19T13:49:22.005Z,9.80
2022-11-19T13:51:53.634Z,9.80
2022-11-19T13:54:26.216Z,9.80
2022-11-19T13:56:58.951Z,9.70
2022-11-19T13:59:46.101Z,9.80
2022-11-19T14:02:42.688Z,9.90
2022-11-19T14:05:45.523Z,9.90
2022-11-19T14:08:28.867Z,10.00
2022-11-19T14:11:12.876Z,10.00
2022-11-19T14:14:04.154Z,9.90
2022-11-19T14:16:59.109Z,10.00
2022-11-19T14:19:44.830Z,10.00
2022-11-19T14:22:50.831Z,10.00
2022-11-19T14:26:00.637Z,10.00
2022-11-19T14:28:49.909Z,9.90
2022-11-19T14:31:19.574Z,9.90
2022-11-19T14:34:04.438Z,9.80
2022-11-19T14:36:44.719Z,9.80
2022-11-19T14:39:20.770Z,9.80
2022-11-19T14:42:08.948Z,9.80
2022-11-19T14:44:38.481Z,9.80
2022-11-19T14:47:35.096Z,9.90
2022-11-19T14:50:08.080Z,10.00
2022-11-19T14:52:39.906Z,9.80
2022-11-19T14:55:21.586Z,9.90
2022-11-19T14:57:57.923Z,10.00
2022-11-19T15:00:33.113Z,10.00
2022-11-19T15:03:03.598Z,9.90
2022-11-19T15:05:34.358Z,9.80
2022-11-19T15:08:42.467Z,9.90
2022-11-19T15:11:11.763Z,9.90
2022-11-19T15:13:41.933Z,9.80
2022-11-19T15:16:14.619Z,9.80
2022-11-19T15:19:20.395Z,9.90
2022-11-19T15:22:10.738Z,9.80
2022-11-19T15:25:01.563Z,9.90
2022-11-19T15:27:42.834Z,9.90
2022-11-19T15:30:18.321Z,9.70
2022-11-19T15:33:05.178Z,9.60
2022-11-19T15:36:18.454Z,9.50
2022-11-19T15:38:51.541Z,9.40
2022-11-19T15:41:24.101Z,9.40
2022-11-19T15:43:55.298Z,9.20
2022-11-19T15:46:34.689Z,9.20
2022-11-19T15:49:12.700Z,9.00
2022-11-19T15:51:57.968Z,9.20
2022-11-19T15:54:29.723Z,9.20
2022-11-19T15:57:01.841Z,9.20
2022-11-19T15:59:31.908Z,9.30
2022-11-19T16:02:02.359Z,9.40
2022-11-19T16:04:36.428Z,9.40
2022-11-19T16:07:07.115Z,9.40
2022-11-19T16:09:36.675Z,9.40
2022-11-19T16:12:22.604Z,9.40
2022-11-19T16:15:09.610Z,9.40
2022-11-19T16:17:44.327Z,9.30
2022-11-19T16:20:23.727Z,9.20
2022-11-19T16:22:56.318Z,9.20
2022-11-19T16:25:31.515Z,9.10
2022-11-19T16:28:02.249Z,9.00
2022-11-19T16:30:34.393Z,9.10
2022-11-19T16:33:03.093Z,9.10
2022-11-19T16:35:33.952Z,9.10
2022-11-19T16:38:03.300Z,9.20
2022-11-19T16:40:53.234Z,9.30
2022-11-19T16:43:20.897Z,9.40
2022-11-19T16:45:50.065Z,9.40
2022-11-19T16:48:57.329Z,9.40
2022-11-19T16:51:36.614Z,9.40
2022-11-19T16:54:06.428Z,9.30
2022-11-19T16:56:39.565Z,9.40
2022-11-19T16:59:08.258Z,9.40
2022-11-19T17:01:37.197Z,9.40
2022-11-19T17:04:08.559Z,9.30
2022-11-19T17:06:39.151Z,9.30
2022-11-19T17:09:07.967Z,9.30
2022-11-19T17:12:10.111Z,9.20
2022-11-19T17:14:56.655Z,9.20
2022-11-19T17:17:35.543Z,9.20
2022-11-19T17:20:22.071Z,9.10
2022-11-19T17:22:51.729Z,9.10
2022-11-19T17:25:20.067Z,9.20
2022-11-19T17:27:52.488Z,9.20
2022-11-19T17:30:24.060Z,9.00
2022-11-19T17:32:55.325Z,9.10
2022-11-19T17:35:34.839Z,9.20
2022-11-19T17:38:11.309Z,9.10
2022-11-19T17:40:41.517Z,9.10
2022-11-19T17:43:29.421Z,9.10
2022-11-19T17:45:57.770Z,9.10
2022-11-19T17:48:27.947Z,9.10
2022-11-19T17:50:56.523Z,9.00
2022-11-19T17:53:26.085Z,9.00
2022-11-19T17:55:56.517Z,9.10
2022-11-19T17:58:24.703Z,9.00
2022-11-19T18:00:52.819Z,9.00
2022-11-19T18:03:20.979Z,9.00
2022-11-19T18:05:50.414Z,8.90
2022-11-19T18:08:18.629Z,9.00
2022-11-19T18:10:49.399Z,9.10
2022-11-19T18:13:21.608Z,9.00
2022-11-19T18:15:49.852Z,9.00
2022-11-19T18:18:18.013Z,9.10
2022-11-19T18:20:46.148Z,9.10
2022-11-19T18:23:14.814Z,9.00
2022-11-19T18:25:43.984Z,8.90
2022-11-19T18:28:13.517Z,9.10
2022-11-19T18:30:42.718Z,9.10
2022-11-19T18:33:11.508Z,9.00
2022-11-19T18:35:39.702Z,8.90
2022-11-19T18:38:08.537Z,8.90
2022-11-19T18:40:37.153Z,8.80
2022-11-19T18:43:22.948Z,8.70
2022-11-19T18:45:52.892Z,8.70
2022-11-19T18:48:22.029Z,8.90
2022-11-19T18:50:50.128Z,8.90
2022-11-19T18:53:18.354Z,8.90
2022-11-19T18:55:48.463Z,8.90
2022-11-19T18:58:16.619Z,8.70
2022-11-19T19:00:44.764Z,8.80
2022-11-19T19:03:15.450Z,8.70
2022-11-19T19:05:43.707Z,8.80
2022-11-19T19:08:11.792Z,8.80
2022-11-19T19:10:40.282Z,8.80
2022-11-19T19:13:07.350Z,8.80
2022-11-19T19:15:35.497Z,8.70
2022-11-19T19:18:07.712Z,8.80
2022-11-19T19:20:37.669Z,8.80
2022-11-19T19:23:05.920Z,8.70
2022-11-19T19:25:34.166Z,8.70
2022-11-19T19:28:02.429Z,8.70
2022-11-19T19:30:30.565Z,8.60
2022-11-19T19:32:58.704Z,8.60
2022-11-19T19:35:26.929Z,8.70
2022-11-19T19:37:56.623Z,8.70
2022-11-19T19:40:24.728Z,8.70
2022-11-19T19:42:52.967Z,8.70
2022-11-19T19:45:21.112Z,8.70
2022-11-19T19:47:49.294Z,8.70
2022-11-19T19:50:17.576Z,8.70
2022-11-19T19:52:45.624Z,8.60
2022-11-19T19:55:15.223Z,8.60
2022-11-19T19:57:43.348Z,8.70
2022-11-19T20:00:12.892Z,8.70
2022-11-19T20:02:41.373Z,8.60
2022-11-19T20:05:10.733Z,8.70
2022-11-19T20:07:39.073Z,8.60
2022-11-19T20:10:09.052Z,8.60
2022-11-19T20:12:56.620Z,8.60
2022-11-19T20:15:24.886Z,8.60
2022-11-19T20:17:53.174Z,8.60
2022-11-19T20:20:22.341Z,8.60
2022-11-19T20:22:51.398Z,8.50
2022-11-19T20:25:19.687Z,8.40
2022-11-19T20:27:49.186Z,8.50
2022-11-19T20:30:17.652Z,8.50
2022-11-19T20:32:45.738Z,8.40
2022-11-19T20:35:13.938Z,8.50
2022-11-19T20:37:41.994Z,8.40
2022-11-19T20:40:11.323Z,8.50
2022-11-19T20:42:59.736Z,8.40
2022-11-19T20:45:29.304Z,8.40
2022-11-19T20:47:59.571Z,8.50
2022-11-19T20:50:30.092Z,8.40
2022-11-19T20:52:59.281Z,8.50
2022-11-19T20:55:28.050Z,8.40
2022-11-19T20:57:57.731Z,8.40
2022-11-19T21:00:27.342Z,8.40
2022-11-19T21:02:58.338Z,8.50
2022-11-19T21:05:28.031Z,8.50
2022-11-19T21:07:56.722Z,8.50
2022-11-19T21:10:26.445Z,8.50
2022-11-19T21:13:05.093Z,8.50
2022-11-19T21:15:37.216Z,8.40
2022-11-19T21:18:07.515Z,8.40
2022-11-19T21:20:36.278Z,8.40
2022-11-19T21:23:05.299Z,8.30
2022-11-19T21:25:35.437Z,8.40
2022-11-19T21:28:03.989Z,8.50
2022-11-19T21:30:32.413Z,8.40
2022-11-19T21:33:02.717Z,8.30
2022-11-19T21:35:33.547Z,8.30
2022-11-19T21:38:04.325Z,8.20
2022-11-19T21:40:40.350Z,8.30
2022-11-19T21:43:10.923Z,8.20
2022-11-19T21:45:42.071Z,8.20
2022-11-19T21:48:10.440Z,8.10
2022-11-19T21:50:41.963Z,8.20
2022-11-19T21:53:11.154Z,8.20
2022-11-19T21:55:39.688Z,8.20
2022-11-19T21:58:08.404Z,8.20
2022-11-19T22:00:36.828Z,8.20
2022-11-19T22:03:05.586Z,8.20
2022-11-19T22:05:33.903Z,8.00
2022-11-19T22:08:03.567Z,8.10
2022-11-19T22:10:31.873Z,7.90
2022-11-19T22:13:00.500Z,8.00
2022-11-19T22:15:28.717Z,7.90
2022-11-19T22:17:56.833Z,7.90
2022-11-19T22:20:25.327Z,7.80
2022-11-19T22:22:54.164Z,7.70
2022-11-19T22:25:23.777Z,7.60
2022-11-19T22:27:52.137Z,7.80
2022-11-19T22:30:20.492Z,7.90
2022-11-19T22:32:48.967Z,7.90
2022-11-19T22:35:17.208Z,7.80
2022-11-19T22:37:45.473Z,7.90
2022-11-19T22:40:14.592Z,7.90
2022-11-19T22:42:44.362Z,7.90
2022-11-19T22:45:12.601Z,7.80
2022-11-19T22:47:40.787Z,7.80
2022-11-19T22:50:09.992Z,7.80
2022-11-19T22:52:38.435Z,7.80
2022-11-19T22:55:07.869Z,7.80
2022-11-19T22:57:36.046Z,7.80
2022-11-19T23:00:09.993Z,7.80
2022-11-19T23:02:38.264Z,7.80
2022-11-19T23:05:07.010Z,7.70
2022-11-19T23:07:35.042Z,7.70
2022-11-19T23:10:03.142Z,7.60
2022-11-19T23:12:48.677Z,7.70
2022-11-19T23:15:18.256Z,7.70
2022-11-19T23:17:46.813Z,7.60
2022-11-19T23:20:15.179Z,7.70
2022-11-19T23:22:43.326Z,7.70
2022-11-19T23:25:11.559Z,7.70
2022-11-19T23:27:39.722Z,7.70
2022-11-19T23:30:09.259Z,7.50
2022-11-19T23:32:38.765Z,7.50
2022-11-19T23:35:07.176Z,7.50
2022-11-19T23:37:35.307Z,7.60
2022-11-19T23:40:03.447Z,7.40
2022-11-19T23:42:31.606Z,7.50
2022-11-19T23:45:00.432Z,7.40
2022-11-19T23:47:28.486Z,7.40
2022-11-19T23:49:57.972Z,7.40
2022-11-19T23:52:26.164Z,7.40
2022-11-19T23:54:54.236Z,7.20
2022-11-19T23:57:22.392Z,7.30
2022-11-19T23:59:50.555Z,7.40
